sensor_id;sensor_type;location;lat;lon;timestamp;pressure;altitude;pressure_sealevel;temperature;humidity
31532;BME280;23787;52.180;5.288;2022-11-20T00:03:28;101250.0;;;-3.6;100.0
31532;BME280;23787;52.180;5.288;2022-11-20T00:08:28;101250.0;;;-3.4;100.0
31532;BME280;23787;52.180;5.288;2022-11-20T00:23:28;101240.0;;;-3.5;100.0
31532;BME280;23787;52.180;5.288;2022-11-20T00:33:28;101230.0;;;-3.8;100.0
31532;BME280;23787;52.180;5.288;2022-11-20T00:38:28;101230.0;;;-3.7;100.0
31532;BME280;23787;52.180;5.288;2022-11-20T00:43:28;101240.0;;;-3.6;100.0
31532;BME280;23787;52.180;5.288;2022-11-20T00:52:30;101230.0;;;-3.7;100.0
31532;BME280;23787;52.180;5.288;2022-11-20T01:03:54;101220.0;;;-3.7;100.0
31532;BME280;23787;52.180;5.288;2022-11-20T01:08:55;101220.0;;;-3.6;100.0
31532;BME280;23787;52.180;5.288;2022-11-20T01:18:55;101220.0;;;-3.4;100.0
31532;BME280;23787;52.180;5.288;2022-11-20T01:23:53;101220.0;;;-3.5;100.0
31532;BME280;23787;52.180;5.288;2022-11-20T01:28:54;101210.0;;;-3.7;100.0
31532;BME280;23787;52.180;5.288;2022-11-20T01:33:54;101210.0;;;-3.8;100.0
31532;BME280;23787;52.180;5.288;2022-11-20T01:38:54;101210.0;;;-3.7;100.0
31532;BME280;23787;52.180;5.288;2022-11-20T01:43:53;101210.0;;;-3.8;100.0
31532;BME280;23787;52.180;5.288;2022-11-20T01:48:54;101210.0;;;-4.0;100.0
31532;BME280;23787;52.180;5.288;2022-11-20T01:53:53;101200.0;;;-3.8;100.0
31532;BME280;23787;52.180;5.288;2022-11-20T01:58:58;101200.0;;;-4.1;100.0
31532;BME280;23787;52.180;5.288;2022-11-20T02:03:53;101190.0;;;-4.0;100.0
31532;BME280;23787;52.180;5.288;2022-11-20T02:08:53;101200.0;;;-4.1;100.0
31532;BME280;23787;52.180;5.288;2022-11-20T02:13:53;101190.0;;;-3.9;100.0
31532;BME280;23787;52.180;5.288;2022-11-20T02:18:54;101190.0;;;-4.0;100.0
31532;BME280;23787;52.180;5.288;2022-11-20T02:23:57;101190.0;;;-4.1;100.0
31532;BME280;23787;52.180;5.288;2022-11-20T02:33:54;101170.0;;;-4.3;100.0
31532;BME280;23787;52.180;5.288;2022-11-20T02:48:53;101180.0;;;-4.4;100.0
31532;BME280;23787;52.180;5.288;2022-11-20T03:03:53;101160.0;;;-4.3;100.0
31532;BME280;23787;52.180;5.288;2022-11-20T03:08:53;101160.0;;;-4.5;100.0
31532;BME280;23787;52.180;5.288;2022-11-20T03:18:53;101150.0;;;-4.6;100.0
31532;BME280;23787;52.180;5.288;2022-11-20T03:23:54;101140.0;;;-4.5;100.0
31532;BME280;23787;52.180;5.288;2022-11-20T03:28:54;101140.0;;;-4.6;100.0
31532;BME280;23787;52.180;5.288;2022-11-20T03:43:54;101140.0;;;-4.7;100.0
31532;BME280;23787;52.180;5.288;2022-11-20T03:58:54;101120.0;;;-4.8;100.0
31532;BME280;23787;52.180;5.288;2022-11-20T04:18:54;101110.0;;;-4.9;100.0
31532;BME280;23787;52.180;5.288;2022-11-20T04:23:54;101110.0;;;-5.1;100.0
31532;BME280;23787;52.180;5.288;2022-11-20T04:28:53;101110.0;;;-5.0;100.0
31532;BME280;23787;52.180;5.288;2022-11-20T04:33:53;101100.0;;;-5.2;100.0
31532;BME280;23787;52.180;5.288;2022-11-20T04:38:54;101100.0;;;-5.0;100.0
31532;BME280;23787;52.180;5.288;2022-11-20T04:43:54;101100.0;;;-5.1;100.0
31532;BME280;23787;52.180;5.288;2022-11-20T04:48:53;101100.0;;;-5.0;100.0
31532;BME280;23787;52.180;5.288;2022-11-20T04:53:53;101100.0;;;-5.2;100.0
31532;BME280;23787;52.180;5.288;2022-11-20T04:58:54;101090.0;;;-5.1;100.0
31532;BME280;23787;52.180;5.288;2022-11-20T05:08:53;101090.0;;;-5.2;100.0
31532;BME280;23787;52.180;5.288;2022-11-20T05:13:53;101090.0;;;-5.3;100.0
31532;BME280;23787;52.180;5.288;2022-11-20T05:18:54;101060.0;;;-5.4;100.0
31532;BME280;23787;52.180;5.288;2022-11-20T05:23:53;101060.0;;;-5.3;100.0
31532;BME280;23787;52.180;5.288;2022-11-20T05:28:53;101060.0;;;-5.4;100.0
31532;BME280;23787;52.180;5.288;2022-11-20T05:33:54;101050.0;;;-5.2;100.0
31532;BME280;23787;52.180;5.288;2022-11-20T05:38:53;101050.0;;;-5.3;100.0
31532;BME280;23787;52.180;5.288;2022-11-20T06:03:53;101080.0;;;-5.4;100.0
31532;BME280;23787;52.180;5.288;2022-11-20T06:08:54;101080.0;;;-5.5;100.0
31532;BME280;23787;52.180;5.288;2022-11-20T06:18:53;101080.0;;;-5.4;100.0
31532;BME280;23787;52.180;5.288;2022-11-20T06:28:54;101080.0;;;-5.5;100.0
31532;BME280;23787;52.180;5.288;2022-11-20T06:38:53;101080.0;;;-5.4;100.0
31532;BME280;23787;52.180;5.288;2022-11-20T06:43:53;101080.0;;;-5.2;100.0
31532;BME280;23787;52.180;5.288;2022-11-20T06:48:54;101080.0;;;-5.3;100.0
31532;BME280;23787;52.180;5.288;2022-11-20T06:58:53;101070.0;;;-5.2;100.0
31532;BME280;23787;52.180;5.288;2022-11-20T07:05:08;101070.0;;;-5.1;100.0
31532;BME280;23787;52.180;5.288;2022-11-20T07:08:01;101060.0;;;-5.2;100.0
31532;BME280;23787;52.180;5.288;2022-11-20T07:23:01;101050.0;;;-5.3;100.0
31532;BME280;23787;52.180;5.288;2022-11-20T07:28:01;101050.0;;;-5.1;100.0
31532;BME280;23787;52.180;5.288;2022-11-20T07:38:01;101040.0;;;-4.9;100.0
31532;BME280;23787;52.180;5.288;2022-11-20T07:43:01;101050.0;;;-4.7;100.0
31532;BME280;23787;52.180;5.288;2022-11-20T07:48:01;101050.0;;;-4.5;100.0
31532;BME280;23787;52.180;5.288;2022-11-20T07:53:01;101060.0;;;-4.4;100.0
31532;BME280;23787;52.180;5.288;2022-11-20T07:58:01;101060.0;;;-4.1;100.0
31532;BME280;23787;52.180;5.288;2022-11-20T08:03:02;101050.0;;;-3.9;100.0
31532;BME280;23787;52.180;5.288;2022-11-20T08:13:01;101040.0;;;-3.5;100.0
31532;BME280;23787;52.180;5.288;2022-11-20T08:18:02;101020.0;;;-3.6;100.0
31532;BME280;23787;52.180;5.288;2022-11-20T08:23:01;101020.0;;;-3.2;100.0
31532;BME280;23787;52.180;5.288;2022-11-20T08:28:02;101020.0;;;-2.8;100.0
31532;BME280;23787;52.180;5.288;2022-11-20T08:33:02;101030.0;;;-2.7;100.0
31532;BME280;23787;52.180;5.288;2022-11-20T08:38:01;101030.0;;;-2.6;100.0
31532;BME280;23787;52.180;5.288;2022-11-20T08:43:01;101030.0;;;-2.4;100.0
31532;BME280;23787;52.180;5.288;2022-11-20T08:48:01;101030.0;;;-2.2;100.0
31532;BME280;23787;52.180;5.288;2022-11-20T08:58:03;101020.0;;;-1.9;100.0
31532;BME280;23787;52.180;5.288;2022-11-20T09:08:01;101030.0;;;-1.7;100.0
31532;BME280;23787;52.180;5.288;2022-11-20T09:13:01;101030.0;;;-1.6;100.0
31532;BME280;23787;52.180;5.288;2022-11-20T09:18:02;101010.0;;;-1.4;100.0
31532;BME280;23787;52.180;5.288;2022-11-20T09:23:01;101000.0;;;-1.0;100.0
31532;BME280;23787;52.180;5.288;2022-11-20T09:28:01;101000.0;;;-1.3;100.0
31532;BME280;23787;52.180;5.288;2022-11-20T09:33:01;100990.0;;;-0.8;100.0
31532;BME280;23787;52.180;5.288;2022-11-20T09:38:04;100960.0;;;-0.5;100.0
31532;BME280;23787;52.180;5.288;2022-11-20T09:43:02;100960.0;;;-0.2;100.0
31532;BME280;23787;52.180;5.288;2022-11-20T09:48:04;100960.0;;;-0.4;100.0
31532;BME280;23787;52.180;5.288;2022-11-20T09:53:06;100960.0;;;-0.1;100.0
31532;BME280;23787;52.180;5.288;2022-11-20T09:58:01;100950.0;;;0.2;100.0
31532;BME280;23787;52.180;5.288;2022-11-20T10:03:01;100950.0;;;0.4;100.0
31532;BME280;23787;52.180;5.288;2022-11-20T10:08:04;100940.0;;;0.5;100.0
31532;BME280;23787;52.180;5.288;2022-11-20T10:13:05;100930.0;;;1.4;100.0
31532;BME280;23787;52.180;5.288;2022-11-20T10:18:04;100920.0;;;1.0;100.0
31532;BME280;23787;52.180;5.288;2022-11-20T10:23:06;100920.0;;;1.7;100.0
31532;BME280;23787;52.180;5.288;2022-11-20T10:28:06;100910.0;;;1.8;100.0
31532;BME280;23787;52.180;5.288;2022-11-20T10:33:03;100900.0;;;1.7;100.0
31532;BME280;23787;52.180;5.288;2022-11-20T10:38:02;100890.0;;;2.3;100.0
31532;BME280;23787;52.180;5.288;2022-11-20T10:43:01;100890.0;;;2.1;100.0
31532;BME280;23787;52.180;5.288;2022-11-20T10:48:07;100860.0;;;1.4;100.0
31532;BME280;23787;52.180;5.288;2022-11-20T10:53:02;100870.0;;;2.0;100.0
31532;BME280;23787;52.180;5.288;2022-11-20T11:03:01;100870.0;;;2.2;100.0
31532;BME280;23787;52.180;5.288;2022-11-20T11:08:01;100850.0;;;2.0;100.0
31532;BME280;23787;52.180;5.288;2022-11-20T11:13:01;100830.0;;;1.7;100.0
31532;BME280;23787;52.180;5.288;2022-11-20T11:18:01;100830.0;;;1.5;100.0
31532;BME280;23787;52.180;5.288;2022-11-20T11:23:01;100820.0;;;1.7;100.0
31532;BME280;23787;52.180;5.288;2022-11-20T11:28:03;100810.0;;;2.0;100.0
31532;BME280;23787;52.180;5.288;2022-11-20T11:33:02;100790.0;;;1.5;100.0
31532;BME280;23787;52.180;5.288;2022-11-20T11:43:02;100780.0;;;1.6;100.0
31532;BME280;23787;52.180;5.288;2022-11-20T11:48:01;100770.0;;;1.9;100.0
31532;BME280;23787;52.180;5.288;2022-11-20T11:53:05;100760.0;;;1.7;100.0
31532;BME280;23787;52.180;5.288;2022-11-20T12:08:02;100750.0;;;1.8;100.0
31532;BME280;23787;52.180;5.288;2022-11-20T12:13:02;100730.0;;;2.0;100.0
31532;BME280;23787;52.180;5.288;2022-11-20T12:18:01;100720.0;;;1.9;100.0
31532;BME280;23787;52.180;5.288;2022-11-20T12:23:02;100720.0;;;2.1;100.0
31532;BME280;23787;52.180;5.288;2022-11-20T12:28:04;100720.0;;;2.4;100.0
31532;BME280;23787;52.180;5.288;2022-11-20T12:33:06;100710.0;;;2.0;100.0
31532;BME280;23787;52.180;5.288;2022-11-20T12:38:06;100700.0;;;2.2;100.0
31532;BME280;23787;52.180;5.288;2022-11-20T12:43:04;100690.0;;;2.3;100.0
31532;BME280;23787;52.180;5.288;2022-11-20T12:48:06;100680.0;;;2.0;100.0
31532;BME280;23787;52.180;5.288;2022-11-20T12:53:02;100660.0;;;2.2;100.0
31532;BME280;23787;52.180;5.288;2022-11-20T12:58:04;100640.0;;;2.1;100.0
31532;BME280;23787;52.180;5.288;2022-11-20T13:03:06;100640.0;;;2.0;100.0
31532;BME280;23787;52.180;5.288;2022-11-20T13:08:01;100620.0;;;2.2;100.0
31532;BME280;23787;52.180;5.288;2022-11-20T13:13:03;100620.0;;;2.3;100.0
31532;BME280;23787;52.180;5.288;2022-11-20T13:18:02;100630.0;;;2.2;100.0
31532;BME280;23787;52.180;5.288;2022-11-20T13:23:01;100620.0;;;2.3;100.0
31532;BME280;23787;52.180;5.288;2022-11-20T13:28:03;100610.0;;;2.4;100.0
31532;BME280;23787;52.180;5.288;2022-11-20T13:33:04;100610.0;;;2.2;100.0
31532;BME280;23787;52.180;5.288;2022-11-20T13:48:03;100580.0;;;2.3;100.0
31532;BME280;23787;52.180;5.288;2022-11-20T14:03:06;100560.0;;;2.2;100.0
31532;BME280;23787;52.180;5.288;2022-11-20T14:08:02;100560.0;;;2.5;100.0
31532;BME280;23787;52.180;5.288;2022-11-20T14:13:09;100530.0;;;2.2;100.0
31532;BME280;23787;52.180;5.288;2022-11-20T14:18:11;100520.0;;;2.3;100.0
31532;BME280;23787;52.180;5.288;2022-11-20T14:33:02;100520.0;;;2.2;100.0
31532;BME280;23787;52.180;5.288;2022-11-20T14:38:01;100490.0;;;2.4;100.0
31532;BME280;23787;52.180;5.288;2022-11-20T14:48:01;100470.0;;;2.2;100.0
31532;BME280;23787;52.180;5.288;2022-11-20T14:53:01;100460.0;;;2.3;100.0
31532;BME280;23787;52.180;5.288;2022-11-20T15:03:01;100450.0;;;2.1;100.0
31532;BME280;23787;52.180;5.288;2022-11-20T15:08:05;100440.0;;;2.2;100.0
31532;BME280;23787;52.180;5.288;2022-11-20T15:13:02;100440.0;;;2.3;100.0
31532;BME280;23787;52.180;5.288;2022-11-20T15:23:01;100430.0;;;2.4;100.0
31532;BME280;23787;52.180;5.288;2022-11-20T15:28:01;100420.0;;;2.3;100.0
31532;BME280;23787;52.180;5.288;2022-11-20T15:33:01;100420.0;;;2.2;100.0
31532;BME280;23787;52.180;5.288;2022-11-20T15:38:01;100410.0;;;2.4;100.0
31532;BME280;23787;52.180;5.288;2022-11-20T15:48:01;100390.0;;;2.5;100.0
31532;BME280;23787;52.180;5.288;2022-11-20T15:53:01;100380.0;;;2.3;100.0
31532;BME280;23787;52.180;5.288;2022-11-20T16:03:01;100370.0;;;2.4;100.0
31532;BME280;23787;52.180;5.288;2022-11-20T16:08:01;100350.0;;;2.3;100.0
31532;BME280;23787;52.180;5.288;2022-11-20T16:13:01;100350.0;;;2.4;100.0
31532;BME280;23787;52.180;5.288;2022-11-20T16:23:01;100340.0;;;2.5;100.0
31532;BME280;23787;52.180;5.288;2022-11-20T16:28:01;100330.0;;;2.4;100.0
31532;BME280;23787;52.180;5.288;2022-11-20T16:33:01;100330.0;;;2.6;100.0
31532;BME280;23787;52.180;5.288;2022-11-20T16:43:06;100320.0;;;2.7;100.0
31532;BME280;23787;52.180;5.288;2022-11-20T16:48:01;100310.0;;;2.8;100.0
31532;BME280;23787;52.180;5.288;2022-11-20T16:53:02;100310.0;;;2.7;100.0
31532;BME280;23787;52.180;5.288;2022-11-20T16:58:01;100290.0;;;2.6;100.0
31532;BME280;23787;52.180;5.288;2022-11-20T17:03:01;100300.0;;;2.8;100.0
31532;BME280;23787;52.180;5.288;2022-11-20T17:08:01;100300.0;;;2.7;100.0
31532;BME280;23787;52.180;5.288;2022-11-20T17:08:47;100300.0;;;2.9;100.0
31532;BME280;23787;52.180;5.288;2022-11-20T17:12:33;100290.0;;;2.8;100.0
31532;BME280;23787;52.180;5.288;2022-11-20T17:17:33;100280.0;;;2.9;100.0
31532;BME280;23787;52.180;5.288;2022-11-20T17:22:33;100270.0;;;3.0;100.0
31532;BME280;23787;52.180;5.288;2022-11-20T17:32:33;100260.0;;;2.9;100.0
31532;BME280;23787;52.180;5.288;2022-11-20T17:37:33;100270.0;;;3.0;100.0
31532;BME280;23787;52.180;5.288;2022-11-20T18:02:33;100280.0;;;3.1;100.0
31532;BME280;23787;52.180;5.288;2022-11-20T18:07:34;100280.0;;;3.0;100.0
31532;BME280;23787;52.180;5.288;2022-11-20T18:12:33;100270.0;;;3.1;100.0
31532;BME280;23787;52.180;5.288;2022-11-20T18:17:33;100280.0;;;3.3;100.0
31532;BME280;23787;52.180;5.288;2022-11-20T18:27:33;100280.0;;;3.1;100.0
31532;BME280;23787;52.180;5.288;2022-11-20T18:37:33;100280.0;;;3.4;100.0
31532;BME280;23787;52.180;5.288;2022-11-20T18:52:36;100300.0;;;3.1;100.0
31532;BME280;23787;52.180;5.288;2022-11-20T18:57:33;100300.0;;;3.2;100.0
31532;BME280;23787;52.180;5.288;2022-11-20T19:02:33;100300.0;;;3.3;100.0
31532;BME280;23787;52.180;5.288;2022-11-20T19:07:33;100290.0;;;3.0;100.0
31532;BME280;23787;52.180;5.288;2022-11-20T19:12:33;100280.0;;;3.1;100.0
31532;BME280;23787;52.180;5.288;2022-11-20T19:17:33;100290.0;;;3.2;100.0
31532;BME280;23787;52.180;5.288;2022-11-20T19:22:33;100280.0;;;3.1;100.0
31532;BME280;23787;52.180;5.288;2022-11-20T19:27:33;100280.0;;;2.9;100.0
31532;BME280;23787;52.180;5.288;2022-11-20T19:32:33;100280.0;;;3.0;100.0
31532;BME280;23787;52.180;5.288;2022-11-20T19:37:34;100270.0;;;2.9;100.0
31532;BME280;23787;52.180;5.288;2022-11-20T19:42:33;100270.0;;;3.1;100.0
31532;BME280;23787;52.180;5.288;2022-11-20T19:47:33;100280.0;;;3.0;100.0
31532;BME280;23787;52.180;5.288;2022-11-20T19:57:33;100290.0;;;3.3;100.0
31532;BME280;23787;52.180;5.288;2022-11-20T20:02:33;100300.0;;;3.4;100.0
31532;BME280;23787;52.180;5.288;2022-11-20T20:07:33;100300.0;;;3.2;100.0
31532;BME280;23787;52.180;5.288;2022-11-20T20:17:33;100310.0;;;3.5;100.0
31532;BME280;23787;52.180;5.288;2022-11-20T20:22:33;100310.0;;;3.1;100.0
31532;BME280;23787;52.180;5.288;2022-11-20T20:27:33;100320.0;;;3.3;100.0
31532;BME280;23787;52.180;5.288;2022-11-20T20:37:33;100320.0;;;3.1;100.0
31532;BME280;23787;52.180;5.288;2022-11-20T20:47:34;100320.0;;;3.2;100.0
31532;BME280;23787;52.180;5.288;2022-11-20T20:52:34;100310.0;;;3.0;100.0
31532;BME280;23787;52.180;5.288;2022-11-20T20:57:33;100310.0;;;3.2;100.0
31532;BME280;23787;52.180;5.288;2022-11-20T21:02:33;100320.0;;;3.1;100.0
31532;BME280;23787;52.180;5.288;2022-11-20T21:07:33;100330.0;;;3.2;100.0
31532;BME280;23787;52.180;5.288;2022-11-20T21:12:33;100320.0;;;3.3;100.0
31532;BME280;23787;52.180;5.288;2022-11-20T21:17:33;100330.0;;;3.2;100.0
31532;BME280;23787;52.180;5.288;2022-11-20T21:22:33;100340.0;;;3.5;100.0
31532;BME280;23787;52.180;5.288;2022-11-20T21:32:33;100350.0;;;3.7;100.0
31532;BME280;23787;52.180;5.288;2022-11-20T21:37:33;100340.0;;;3.4;100.0
31532;BME280;23787;52.180;5.288;2022-11-20T21:47:33;100360.0;;;3.3;100.0
31532;BME280;23787;52.180;5.288;2022-11-20T21:52:33;100360.0;;;3.2;100.0
31532;BME280;23787;52.180;5.288;2022-11-20T21:57:33;100360.0;;;3.4;100.0
31532;BME280;23787;52.180;5.288;2022-11-20T22:07:33;100370.0;;;3.3;100.0
31532;BME280;23787;52.180;5.288;2022-11-20T22:22:33;100400.0;;;3.2;100.0
31532;BME280;23787;52.180;5.288;2022-11-20T22:32:33;100420.0;;;3.0;100.0
31532;BME280;23787;52.180;5.288;2022-11-20T22:42:33;100410.0;;;2.8;100.0
31532;BME280;23787;52.180;5.288;2022-11-20T22:47:33;100400.0;;;2.9;100.0
31532;BME280;23787;52.180;5.288;2022-11-20T22:52:33;100410.0;;;3.3;100.0
31532;BME280;23787;52.180;5.288;2022-11-20T22:57:33;100420.0;;;3.1;100.0
31532;BME280;23787;52.180;5.288;2022-11-20T23:02:33;100440.0;;;3.3;100.0
31532;BME280;23787;52.180;5.288;2022-11-20T23:07:33;100440.0;;;3.2;100.0
31532;BME280;23787;52.180;5.288;2022-11-20T23:12:34;100450.0;;;3.0;100.0
31532;BME280;23787;52.180;5.288;2022-11-20T23:27:33;100450.0;;;2.8;100.0
31532;BME280;23787;52.180;5.288;2022-11-20T23:42:33;100450.0;;;2.9;100.0
31532;BME280;23787;52.180;5.288;2022-11-20T23:47:33;100440.0;;;2.8;100.0
31532;BME280;23787;52.180;5.288;2022-11-20T23:52:33;100450.0;;;2.7;100.0
31532;BME280;23787;52.180;5.288;2022-11-20T23:57:34;100460.0;;;2.8;100.0
